Time;durP1;ratioP1;P1;durP2;ratioP2;P2;SDS_P1;SDS_P2;PMS_P1;PMS_P2;Temp;Humidity;BMP_temperature;BMP_pressure;BME280_temperature;BME280_humidity;BME280_pressure;Samples;Min_cycle;Max_cycle;Signal;HPM_P1;HPM_P2
2021/08/15 00:00:41;;;;;;;;;;;14.80;99.90;;;13.49;91.55;101421.06;2569740;30;139119;-41
2021/08/15 00:03:12;;;;;;;20.90;14.27;;;14.80;99.90;;;13.50;92.28;101411.78;2568252;30;136917;-41
2021/08/15 00:05:39;;;;;;;21.90;13.95;;;14.90;99.90;;;13.48;91.76;101411.16;2567935;30;138839;-40
2021/08/15 00:08:08;;;;;;;19.73;13.82;;;14.80;99.90;;;13.44;91.64;101410.78;2567260;30;137432;-41
2021/08/15 00:10:38;;;;;;;21.67;14.10;;;14.80;99.90;;;13.41;91.15;101407.59;2567621;30;138420;-41
2021/08/15 00:13:08;;;;;;;19.30;13.35;;;14.70;99.90;;;13.33;91.31;101404.03;2568875;30;137034;-40
2021/08/15 00:15:36;;;;;;;22.45;14.73;;;14.70;99.90;;;13.34;91.52;101408.47;2568325;30;138435;-40
2021/08/15 00:18:03;;;;;;;22.77;14.85;;;14.70;99.90;;;13.31;91.78;101403.41;2568344;30;137514;-41
2021/08/15 00:20:31;;;;;;;20.55;13.73;;;14.70;99.90;;;13.28;91.80;101403.84;2567667;30;138289;-41
2021/08/15 00:22:59;;;;;;;20.88;13.65;;;14.60;99.90;;;13.25;92.20;101396.03;2567636;30;138337;-41
2021/08/15 00:25:27;;;;;;;19.13;13.40;;;14.60;99.90;;;13.21;91.98;101392.91;2568363;30;138451;-40
2021/08/15 00:27:54;;;;;;;21.65;13.23;;;14.50;99.90;;;13.18;91.96;101396.09;2568067;30;137319;-41
2021/08/15 00:30:22;;;;;;;21.05;13.90;;;14.50;99.90;;;13.16;92.13;101394.63;2566043;30;138875;-41
2021/08/15 00:32:50;;;;;;;21.63;14.27;;;14.50;99.90;;;13.14;92.13;101391.25;2568251;30;137886;-41
2021/08/15 00:35:17;;;;;;;20.08;14.02;;;14.50;99.90;;;13.12;92.44;101394.19;2565463;30;139221;-40
2021/08/15 00:37:45;;;;;;;20.23;13.15;;;14.50;99.90;;;13.12;92.64;101387.88;2568165;30;137797;-40
2021/08/15 00:40:13;;;;;;;20.08;13.38;;;14.50;99.90;;;13.11;92.41;101388.94;2566614;30;138247;-40
2021/08/15 00:42:40;;;;;;;;;;;14.40;99.90;;;13.07;92.19;101383.91;2570193;30;137439;-41
2021/08/15 00:45:09;;;;;;;21.20;13.05;;;14.50;99.90;;;13.06;92.16;101386.84;2567425;30;138442;-42
2021/08/15 00:47:36;;;;;;;20.80;13.98;;;14.40;99.90;;;13.05;92.06;101391.50;2568503;30;137408;-41
2021/08/15 00:50:05;;;;;;;18.58;13.02;;;14.40;99.90;;;13.03;92.37;101390.03;2566516;30;136732;-40
2021/08/15 00:52:33;;;;;;;19.50;14.27;;;14.40;99.90;;;13.00;92.25;101380.34;2567404;30;136782;-40
2021/08/15 00:55:11;;;;;;;21.17;14.00;;;14.40;99.90;;;13.01;92.31;101370.22;2567876;30;137585;-41
2021/08/15 00:57:44;;;;;;;19.98;13.20;;;14.40;99.90;;;13.00;92.61;101374.03;2568404;30;137471;-41
2021/08/15 01:00:12;;;;;;;18.83;12.95;;;14.30;99.90;;;12.95;92.88;101363.69;2566681;30;137627;-41
2021/08/15 01:02:42;;;;;;;20.67;13.57;;;14.30;99.90;;;12.99;92.64;101367.69;2568188;30;138450;-41
2021/08/15 01:05:10;;;;;;;20.83;14.02;;;14.30;99.90;;;13.02;93.12;101359.06;2568542;30;138273;-41
2021/08/15 01:07:40;;;;;;;19.90;13.13;;;14.40;99.90;;;13.02;92.78;101361.81;2568658;30;138348;-42
2021/08/15 01:10:14;;;;;;;19.15;13.27;;;14.40;99.90;;;13.02;92.45;101361.81;2567750;30;138246;-41
2021/08/15 01:12:42;;;;;;;19.83;13.07;;;14.40;99.90;;;13.00;92.57;101352.97;2568154;30;137807;-39
2021/08/15 01:15:11;;;;;;;18.80;12.98;;;14.40;99.90;;;12.99;92.44;101354.00;2566332;30;138561;-40
2021/08/15 01:17:41;;;;;;;19.05;13.18;;;14.40;99.90;;;12.94;92.26;101342.84;2567720;30;138238;-40
2021/08/15 01:20:10;;;;;;;17.55;12.57;;;14.30;99.90;;;12.97;92.31;101347.88;2566191;30;138603;-41
2021/08/15 01:22:41;;;;;;;20.80;13.40;;;14.30;99.90;;;12.97;92.56;101338.84;2567694;30;138228;-40
2021/08/15 01:25:11;;;;;;;19.00;12.95;;;14.30;99.90;;;12.95;92.57;101333.56;2566994;30;138445;-41
2021/08/15 01:27:45;;;;;;;21.25;13.80;;;14.30;99.90;;;12.97;93.12;101336.09;2568591;30;136648;-41
2021/08/15 01:30:15;;;;;;;21.05;14.18;;;14.30;99.90;;;12.94;93.49;101338.22;2568577;30;138298;-40
2021/08/15 01:32:45;;;;;;;19.33;12.55;;;14.30;99.90;;;12.93;93.26;101338.44;2568707;30;137593;-41
2021/08/15 01:35:12;;;;;;;20.98;13.38;;;14.30;99.90;;;12.92;92.74;101329.38;2567757;30;137170;-40
2021/08/15 01:37:40;;;;;;;19.02;12.63;;;14.30;99.90;;;12.90;93.01;101333.38;2567578;30;137585;-41
2021/08/15 01:40:09;;;;;;;21.27;13.27;;;14.30;99.90;;;12.88;93.04;101327.28;2569219;30;139407;-41
2021/08/15 01:42:36;;;;;;;18.40;12.40;;;14.30;99.90;;;12.87;93.44;101326.47;2568875;30;137555;-41
2021/08/15 01:45:10;;;;;;;18.92;13.38;;;14.30;99.90;;;12.85;93.66;101324.97;2567251;30;137322;-39
2021/08/15 01:47:38;;;;;;;19.40;12.85;;;14.20;99.90;;;12.86;93.51;101326.66;2566221;30;137705;-40
2021/08/15 01:50:07;;;;;;;18.33;13.15;;;14.20;99.90;;;12.86;93.21;101323.94;2565203;30;137540;-40
2021/08/15 01:52:34;;;;;;;17.63;11.85;;;14.20;99.90;;;12.84;92.97;101323.31;2567790;30;137660;-41
2021/08/15 01:55:06;;;;;;;17.85;12.35;;;14.20;99.90;;;12.79;93.44;101333.00;2567125;30;139289;-41
2021/08/15 01:57:33;;;;;;;16.83;12.18;;;14.10;99.90;;;12.76;93.46;101327.97;2568723;30;139117;-42
2021/08/15 02:00:04;;;;;;;21.40;12.43;;;14.10;99.90;;;12.75;93.59;101318.06;2568940;30;137367;-40
2021/08/15 02:02:43;;;;;;;18.25;12.43;;;14.10;99.90;;;12.73;93.47;101311.97;2569181;30;136786;-42
2021/08/15 02:05:16;;;;;;;20.10;12.60;;;14.10;99.90;;;12.72;92.96;101307.53;2567922;30;138925;-40
2021/08/15 02:07:43;;;;;;;19.30;12.07;;;14.10;99.90;;;12.72;93.51;101312.19;2568331;30;137720;-41
2021/08/15 02:10:13;;;;;;;22.30;14.15;;;14.10;99.90;;;12.74;93.81;101316.38;2567057;30;138323;-41
2021/08/15 02:12:41;;;;;;;17.42;12.70;;;14.10;99.90;;;12.75;94.02;101314.47;2565862;30;137857;-40
2021/08/15 02:15:09;;;;;;;20.33;12.60;;;14.10;99.90;;;12.70;93.87;101308.81;2567448;30;138524;-40
2021/08/15 02:17:37;;;;;;;19.65;12.63;;;14.10;99.90;;;12.70;93.88;101317.03;2565226;30;136854;-41
2021/08/15 02:20:07;;;;;;;17.35;11.80;;;14.10;99.90;;;12.68;93.72;101322.69;2567727;30;137045;-40
2021/08/15 02:22:34;;;;;;;17.52;11.77;;;14.10;99.90;;;12.64;93.33;101311.34;2565569;30;137774;-40
2021/08/15 02:25:05;;;;;;;16.27;11.40;;;14.00;99.90;;;12.60;93.25;101317.47;2568183;30;138513;-40
2021/08/15 02:27:32;;;;;;;17.85;11.85;;;14.00;99.90;;;12.57;93.18;101317.91;2566503;30;137593;-40
2021/08/15 02:29:59;;;;;;;17.83;11.30;;;13.90;99.90;;;12.56;93.71;101322.50;2565860;30;138716;-40
2021/08/15 02:32:27;;;;;;;18.77;12.35;;;13.90;99.90;;;12.53;93.64;101314.72;2568735;30;136774;-41
2021/08/15 02:34:54;;;;;;;16.40;10.82;;;13.90;99.90;;;12.51;93.46;101311.38;2568168;30;139364;-40
2021/08/15 02:37:23;;;;;;;17.48;11.65;;;13.90;99.90;;;12.47;93.39;101313.72;2576011;30;146279;-40
2021/08/15 02:39:51;;;;;;;16.73;10.60;;;13.90;99.90;;;12.48;93.77;101298.13;2567969;30;138088;-40
2021/08/15 02:42:19;;;;;;;18.08;11.73;;;13.90;99.90;;;12.47;93.39;101294.56;2568201;30;137481;-39
2021/08/15 02:44:47;;;;;;;19.15;12.20;;;13.90;99.90;;;12.47;93.60;101288.22;2568817;30;139110;-40
2021/08/15 02:47:14;;;;;;;18.15;11.35;;;13.80;99.90;;;12.48;93.59;101290.75;2569069;30;138395;-38
2021/08/15 02:49:42;;;;;;;17.60;11.80;;;13.80;99.90;;;12.49;93.88;101289.72;2570644;30;138414;-39
2021/08/15 02:52:09;;;;;;;15.85;11.57;;;13.80;99.90;;;12.50;94.61;101285.06;2568659;30;137633;-40
2021/08/15 02:54:37;;;;;;;20.13;11.18;;;13.90;99.90;;;12.51;94.90;101284.84;2568009;30;137525;-40
2021/08/15 02:57:05;;;;;;;;;;;13.90;99.90;;;12.52;94.80;101278.34;2567125;30;138671;-41
2021/08/15 02:59:39;;;;;;;17.80;10.55;;;13.90;99.90;;;12.51;94.65;101267.59;2568834;30;138443;-40
2021/08/15 03:02:13;;;;;;;16.70;10.60;;;13.90;99.90;;;12.53;94.82;101268.22;2568362;30;137250;-39
2021/08/15 03:04:42;;;;;;;16.88;10.27;;;13.90;99.90;;;12.50;94.22;101266.75;2569640;30;138271;-40
2021/08/15 03:07:15;;;;;;;18.90;11.52;;;13.80;99.90;;;12.51;94.61;101271.19;2567918;30;137470;-39
2021/08/15 03:09:45;;;;;;;16.50;10.98;;;13.90;99.90;;;12.51;94.23;101262.09;2569543;30;138303;-39
2021/08/15 03:12:13;;;;;;;15.20;10.10;;;13.90;99.90;;;12.50;94.43;101264.03;2569933;30;137673;-39
2021/08/15 03:14:41;;;;;;;;;;;13.90;99.90;;;12.47;94.53;101256.25;2568947;30;137452;-39
2021/08/15 03:17:09;;;;;;;16.67;10.10;;;13.80;99.90;;;12.39;94.92;101250.97;2569181;30;136701;-39
2021/08/15 03:19:37;;;;;;;16.20;10.48;;;13.80;99.90;;;12.45;95.17;101252.03;2570414;30;138343;-39
2021/08/15 03:22:06;;;;;;;15.18;10.20;;;13.80;99.90;;;12.45;95.43;101258.31;2568204;30;136864;-40
2021/08/15 03:24:35;;;;;;;18.08;11.05;;;13.80;99.90;;;12.46;95.62;101259.19;2567349;30;138195;-39
2021/08/15 03:27:03;;;;;;;17.80;11.02;;;13.80;99.90;;;12.48;96.15;101254.34;2568151;30;138320;-39
2021/08/15 03:29:31;;;;;;;18.10;11.25;;;13.80;99.90;;;12.47;96.69;101238.97;2568202;30;137131;-39
2021/08/15 03:31:59;;;;;;;18.10;11.27;;;13.90;99.90;;;12.59;98.00;101245.44;2568625;30;137570;-40
2021/08/15 03:34:26;;;;;;;14.40;10.02;;;13.90;99.90;;;12.64;98.27;101244.81;2569114;30;137105;-39
2021/08/15 03:36:54;;;;;;;17.30;11.40;;;13.90;99.90;;;12.62;98.38;101241.44;2569284;30;137605;-39
2021/08/15 03:39:22;;;;;;;17.90;11.20;;;14.00;99.90;;;12.64;98.11;101261.22;2568234;30;137928;-40
2021/08/15 03:41:49;;;;;;;18.27;10.73;;;14.00;99.90;;;12.61;97.75;101246.09;2569492;30;136984;-39
2021/08/15 03:44:17;;;;;;;16.60;9.98;;;14.00;99.90;;;12.61;97.82;101246.09;2568018;30;137250;-39
2021/08/15 03:46:44;;;;;;;16.58;10.80;;;14.00;99.90;;;12.58;97.51;101246.50;2568799;30;138560;-39
2021/08/15 03:49:12;;;;;;;19.45;11.85;;;13.90;99.90;;;12.65;99.08;101235.53;2570314;30;138332;-39
2021/08/15 03:51:39;;;;;;;19.55;11.48;;;14.00;99.90;;;12.70;99.77;101230.25;2566412;30;137884;-39
2021/08/15 03:54:07;;;;;;;20.38;11.85;;;14.00;99.90;;;12.79;100.00;101226.22;2569424;30;138342;-39
2021/08/15 03:56:34;;;;;;;20.23;11.85;;;14.10;99.90;;;12.87;100.00;101216.06;2569181;30;136847;-39
2021/08/15 03:59:02;;;;;;;19.48;11.15;;;14.20;99.90;;;12.93;100.00;101218.78;2570543;30;139274;-39
2021/08/15 04:01:29;;;;;;;20.52;12.07;;;14.20;99.90;;;13.01;100.00;101212.22;2569145;30;137530;-40
2021/08/15 04:03:57;;;;;;;22.58;12.02;;;14.30;99.90;;;13.07;100.00;101205.84;2566775;30;137323;-39
2021/08/15 04:06:24;;;;;;;19.88;11.68;;;14.40;99.90;;;13.13;100.00;101208.78;2570388;30;138403;-39
2021/08/15 04:08:52;;;;;;;18.75;11.32;;;14.40;99.90;;;13.17;100.00;101212.75;2568835;30;137720;-39
2021/08/15 04:11:19;;;;;;;17.73;11.18;;;14.50;99.90;;;13.21;100.00;101216.72;2566817;30;137674;-39
2021/08/15 04:13:47;;;;;;;18.70;10.80;;;14.50;99.90;;;13.19;100.00;101216.09;2570337;30;137934;-40
2021/08/15 04:16:14;;;;;;;18.60;10.57;;;14.50;99.90;;;13.19;100.00;101221.56;2568783;30;137160;-39
2021/08/15 04:18:42;;;;;;;20.98;11.35;;;14.50;99.90;;;13.19;100.00;101227.06;2569228;30;137875;-39
2021/08/15 04:21:09;;;;;;;24.15;10.98;;;14.50;99.90;;;13.20;100.00;101229.59;2568849;30;137373;-39
2021/08/15 04:23:37;;;;;;;20.85;10.68;;;14.50;99.90;;;13.21;100.00;101216.72;2568864;30;137405;-39
2021/08/15 04:26:04;;;;;;;18.80;10.88;;;14.60;99.90;;;13.26;100.00;101225.13;2568783;30;137566;-39
2021/08/15 04:28:32;;;;;;;17.88;11.07;;;14.60;99.90;;;13.29;100.00;101230.16;2570078;30;139033;-40
2021/08/15 04:30:59;;;;;;;18.80;10.32;;;14.60;99.90;;;13.34;100.00;101227.59;2570273;30;137540;-40
2021/08/15 04:33:28;;;;;;;19.33;10.02;;;14.60;99.90;;;13.35;100.00;101229.28;2569414;30;139086;-40
2021/08/15 04:35:55;;;;;;;17.83;9.40;;;14.70;99.90;;;13.35;100.00;101223.81;2569007;30;138327;-40
2021/08/15 04:38:25;;;;;;;17.17;10.60;;;14.60;99.90;;;13.32;100.00;101221.50;2569535;30;137801;-39
2021/08/15 04:40:52;;;;;;;14.82;9.68;;;14.60;99.90;;;13.36;100.00;101220.00;2568458;30;137053;-39
2021/08/15 04:43:20;;;;;;;16.88;9.13;;;14.70;99.90;;;13.36;100.00;101221.88;2569568;30;137733;-40
2021/08/15 04:45:48;;;;;;;16.25;9.57;;;14.70;99.90;;;13.42;100.00;101217.44;2567113;30;137031;-39
2021/08/15 04:48:16;;;;;;;17.00;9.60;;;14.70;99.90;;;13.43;100.00;101217.25;2568015;30;137448;-39
2021/08/15 04:50:44;;;;;;;15.80;9.85;;;14.70;99.90;;;13.47;100.00;101231.34;2567847;30;138549;-39
2021/08/15 04:53:12;;;;;;;19.05;9.90;;;14.70;99.90;;;13.47;100.00;101220.38;2568152;30;137370;-41
2021/08/15 04:55:39;;;;;;;16.40;9.27;;;14.80;99.90;;;13.49;100.00;101223.72;2570208;30;137436;-41
2021/08/15 04:58:07;;;;;;;14.88;9.32;;;14.80;99.90;;;13.52;100.00;101218.66;2570789;30;139442;-39
2021/08/15 05:00:35;;;;;;;14.50;8.63;;;14.80;99.90;;;13.57;100.00;101214.38;2567900;30;137285;-39
2021/08/15 05:03:03;;;;;;;;;;;14.90;99.90;;;13.64;100.00;101206.94;2570123;30;137746;-39
2021/08/15 05:05:31;;;;;;;14.05;8.88;;;14.90;99.90;;;13.71;100.00;101215.13;2568407;30;137034;-39
2021/08/15 05:07:58;;;;;;;16.00;9.32;;;14.90;99.90;;;13.79;99.87;101212.09;2570643;30;138583;-40
2021/08/15 05:10:26;;;;;;;15.70;9.60;;;15.00;99.90;;;13.87;100.00;101220.06;2565890;30;137878;-39
2021/08/15 05:12:54;;;;;;;17.27;9.07;;;15.10;99.90;;;13.92;99.80;101220.22;2569133;30;137447;-40
2021/08/15 05:15:21;;;;;;;15.05;8.90;;;15.10;99.90;;;13.99;99.76;101222.03;2569711;30;137377;-40
2021/08/15 05:17:49;;;;;;;14.60;8.95;;;15.20;99.90;;;14.05;99.48;101221.97;2569147;30;137067;-39
2021/08/15 05:20:16;;;;;;;15.07;8.82;;;15.30;99.90;;;14.16;99.69;101222.28;2568463;30;137175;-40
2021/08/15 05:22:45;;;;;;;15.65;9.63;;;15.30;99.90;;;14.27;99.50;101220.69;2570900;30;137484;-39
2021/08/15 05:25:13;;;;;;;15.68;8.77;;;15.40;99.90;;;14.38;99.16;101228.19;2568532;30;136815;-40
2021/08/15 05:27:40;;;;;;;13.90;8.63;;;15.50;99.90;;;14.48;99.00;101223.00;2571585;30;138434;-40
2021/08/15 05:30:09;;;;;;;14.73;8.65;;;15.60;99.90;;;14.60;98.75;101225.00;2568167;30;137792;-39
2021/08/15 05:32:36;;;;;;;17.63;9.45;;;15.70;99.90;;;14.75;98.14;101222.72;2569701;30;139206;-39
2021/08/15 05:35:04;;;;;;;16.02;8.25;;;15.80;99.90;;;14.84;97.94;101215.00;2571278;30;137679;-39
2021/08/15 05:37:31;;;;;;;;;;;16.00;99.90;;;14.95;97.56;101221.63;2569933;30;138452;-39
2021/08/15 05:39:59;;;;;;;16.58;8.77;;;16.00;99.90;;;15.04;96.77;101211.97;2569516;30;137102;-40
2021/08/15 05:42:27;;;;;;;18.67;8.93;;;16.10;99.90;;;15.11;96.52;101206.38;2567423;30;139050;-41
2021/08/15 05:44:54;;;;;;;18.00;8.95;;;16.20;99.90;;;15.23;95.61;101212.75;2568185;30;138239;-40
2021/08/15 05:47:22;;;;;;;15.85;9.25;;;16.30;99.90;;;15.37;95.51;101212.56;2567757;30;139111;-39
2021/08/15 05:49:49;;;;;;;15.32;8.68;;;16.40;99.90;;;15.47;94.83;101222.97;2569089;30;138518;-39
2021/08/15 05:52:17;;;;;;;15.68;9.52;;;16.50;99.90;;;15.55;94.03;101216.31;2568300;30;138753;-40
2021/08/15 05:54:44;;;;;;;16.38;8.85;;;16.60;99.90;;;15.66;93.96;101224.59;2568854;30;137683;-44
2021/08/15 05:57:12;;;;;;;16.60;8.82;;;16.70;99.90;;;15.70;93.58;101210.34;2569861;30;137480;-39
2021/08/15 05:59:39;;;;;;;17.63;8.27;;;16.70;99.90;;;15.77;92.57;101214.63;2568002;30;137713;-39
2021/08/15 06:02:07;;;;;;;15.82;8.25;;;16.80;99.90;;;15.80;92.13;101203.19;2569911;30;138454;-40
2021/08/15 06:04:35;;;;;;;13.60;8.60;;;16.80;99.90;;;15.84;91.55;101209.03;2567783;30;137380;-39
2021/08/15 06:07:03;;;;;;;14.85;8.32;;;16.90;99.90;;;15.90;91.96;101210.84;2570103;30;137815;-39
2021/08/15 06:09:30;;;;;;;16.55;8.35;;;16.90;99.90;;;16.01;91.29;101214.69;2568574;30;138324;-39
2021/08/15 06:12:04;;;;;;;16.67;8.25;;;17.00;99.90;;;16.19;90.58;101199.13;2569356;30;136783;-39
2021/08/15 06:14:34;;;;;;;14.43;8.23;;;17.20;99.90;;;16.49;89.84;101201.72;2568957;30;136737;-40
2021/08/15 06:17:03;;;;;;;14.88;7.40;;;17.30;99.90;;;16.71;88.44;101197.44;2570148;30;138307;-39
2021/08/15 06:19:31;;;;;;;13.93;7.93;;;17.60;99.90;;;16.78;87.84;101193.47;2568606;30;137356;-40
2021/08/15 06:22:00;;;;;;;18.73;8.80;;;17.70;99.90;;;16.95;87.03;101201.78;2568064;30;138878;-39
2021/08/15 06:24:28;;;;;;;18.70;8.50;;;17.80;99.90;;;16.99;86.34;101196.66;2566004;30;137131;-40
2021/08/15 06:26:56;;;;;;;14.70;8.15;;;17.90;99.90;;;17.02;86.29;101187.91;2566791;30;137325;-40
2021/08/15 06:29:24;;;;;;;12.98;7.82;;;17.90;99.90;;;17.13;85.98;101186.16;2566894;30;137473;-40
2021/08/15 06:31:51;;;;;;;15.15;8.30;;;18.10;99.90;;;17.34;84.47;101181.84;2569853;30;138955;-40
2021/08/15 06:34:19;;;;;;;15.07;8.40;;;18.20;99.90;;;17.58;84.68;101186.34;2567472;30;138265;-39
2021/08/15 06:36:46;;;;;;;12.85;7.57;;;18.30;99.90;;;17.78;83.89;101183.94;2570080;30;138225;-40
2021/08/15 06:39:14;;;;;;;13.57;7.40;;;18.60;99.90;;;17.95;81.55;101181.13;2567696;30;136773;-39
2021/08/15 06:41:42;;;;;;;14.45;7.53;;;18.70;99.90;;;18.18;80.74;101176.53;2568779;30;138157;-40
2021/08/15 06:44:09;;;;;;;14.10;7.50;;;18.90;99.90;;;18.34;80.00;101183.09;2568774;30;136852;-40
2021/08/15 06:46:37;;;;;;;13.60;6.40;;;19.00;99.90;;;18.53;80.23;101180.81;2567822;30;138410;-40
2021/08/15 06:49:04;;;;;;;12.43;6.70;;;19.20;99.90;;;18.68;78.55;101193.16;2568512;30;138104;-40
2021/08/15 06:51:32;;;;;;;13.95;6.80;;;19.40;99.90;;;18.78;78.02;101186.94;2567136;30;138519;-40
2021/08/15 06:54:01;;;;;;;12.80;7.05;;;19.50;99.90;;;18.99;77.69;101176.13;2569776;30;137620;-39
2021/08/15 06:56:28;;;;;;;10.57;6.05;;;19.70;99.90;;;19.09;76.89;101167.94;2569314;30;138100;-41
2021/08/15 06:58:59;;;;;;;11.93;6.82;;;19.80;99.90;;;19.28;75.92;101184.16;2570034;30;137544;-40
2021/08/15 07:01:26;;;;;;;11.95;6.45;;;20.00;99.90;;;19.27;75.38;101180.53;2572157;30;137473;-40
2021/08/15 07:03:54;;;;;;;10.95;6.38;;;20.00;99.90;;;19.17;75.95;101177.69;2566327;30;137660;-38
2021/08/15 07:06:22;;;;;;;13.13;6.40;;;20.00;99.90;;;19.03;75.08;101168.97;2570027;30;137318;-40
2021/08/15 07:08:49;;;;;;;10.40;6.15;;;20.00;99.90;;;18.86;75.67;101182.88;2565629;30;137560;-39
2021/08/15 07:11:17;;;;;;;10.85;6.38;;;19.80;99.90;;;18.66;75.29;101176.84;2570608;30;137078;-40
2021/08/15 07:13:44;;;;;;;11.88;6.05;;;19.70;99.90;;;18.72;76.61;101168.63;2568360;30;137129;-40
2021/08/15 07:16:12;;;;;;;12.52;6.35;;;19.70;99.90;;;18.81;76.97;101175.34;2567568;30;137276;-40
2021/08/15 07:18:39;;;;;;;12.80;5.97;;;19.70;99.90;;;18.93;75.74;101175.19;2567043;30;137309;-40
2021/08/15 07:21:07;;;;;;;13.95;6.47;;;19.70;99.90;;;19.14;76.17;101172.69;2566696;30;137277;-40
2021/08/15 07:23:34;;;;;;;11.00;5.45;;;19.90;99.90;;;19.33;75.11;101164.81;2570839;30;137474;-40
2021/08/15 07:26:02;;;;;;;9.77;5.28;;;20.00;99.90;;;19.53;73.27;101172.44;2569659;30;137356;-40
2021/08/15 07:28:30;;;;;;;11.23;6.03;;;20.20;99.90;;;19.81;73.44;101170.44;2571235;30;137481;-40
2021/08/15 07:30:58;;;;;;;11.93;5.97;;;20.40;99.90;;;20.14;73.13;101173.16;2569751;30;137439;-40
2021/08/15 07:33:25;;;;;;;11.43;5.25;;;20.70;99.90;;;20.48;73.36;101170.84;2569875;30;137332;-40
2021/08/15 07:35:53;;;;;;;9.45;5.45;;;21.00;99.90;;;20.76;70.59;101165.09;2568466;30;138550;-40
2021/08/15 07:38:21;;;;;;;9.70;5.55;;;21.30;99.90;;;20.87;68.88;101149.34;2570902;30;137047;-39
2021/08/15 07:40:50;;;;;;;11.07;5.57;;;21.40;99.90;;;20.90;68.25;101151.56;2568716;30;137485;-39
2021/08/15 07:43:17;;;;;;;8.40;4.38;;;21.50;99.90;;;20.94;69.45;101159.06;2569012;30;137645;-40
2021/08/15 07:45:45;;;;;;;8.63;5.13;;;21.60;99.90;;;20.77;68.51;101166.75;2569384;30;138174;-40
2021/08/15 07:48:13;;;;;;;11.68;5.88;;;21.60;99.90;;;20.67;69.23;101157.31;2567813;30;137665;-40
2021/08/15 07:50:40;;;;;;;;;;;21.50;99.90;;;20.84;70.53;101153.50;2566859;30;138327;-40
2021/08/15 07:53:19;;;;;;;9.13;4.50;;;21.60;99.90;;;21.01;70.08;101158.81;2568726;30;136836;-41
2021/08/15 07:55:47;;;;;;;;;;;21.70;99.90;;;21.06;68.62;101155.19;2568428;30;137376;-40
2021/08/15 07:58:15;;;;;;;11.70;5.40;;;21.80;99.90;;;21.17;69.29;101144.94;2568709;30;137932;-39
2021/08/15 08:00:44;;;;;;;8.77;4.95;;;21.80;99.90;;;21.38;69.98;101137.47;2567357;30;137634;-40
2021/08/15 08:03:13;;;;;;;9.23;4.60;;;22.00;99.90;;;21.67;69.21;101145.25;2570227;30;136880;-39
2021/08/15 08:05:42;;;;;;;11.00;5.43;;;22.20;99.90;;;21.94;67.22;101146.84;2567866;30;138836;-39
2021/08/15 08:08:10;;;;;;;11.98;5.43;;;22.50;99.90;;;22.09;65.08;101141.22;2570260;30;137753;-39
2021/08/15 08:10:39;;;;;;;9.70;4.60;;;22.60;99.90;;;22.33;65.16;101132.25;2569238;30;137303;-40
2021/08/15 08:13:09;;;;;;;11.60;4.55;;;22.80;99.90;;;22.55;65.02;101131.91;2568712;30;137108;-40
2021/08/15 08:15:38;;;;;;;9.70;5.15;;;23.00;99.90;;;22.87;65.02;101132.53;2569802;30;137553;-40
2021/08/15 08:18:08;;;;;;;13.30;5.05;;;23.30;99.90;;;23.05;64.06;101125.44;2569227;30;136696;-40
2021/08/15 08:20:37;;;;;;;12.80;7.13;;;23.50;99.90;;;23.06;63.38;101117.94;2568597;30;138464;-40
2021/08/15 08:23:11;;;;;;;9.82;4.40;;;23.60;99.90;;;23.00;62.10;101128.28;2569484;30;137035;-40
2021/08/15 08:25:40;;;;;;;9.80;4.60;;;23.60;99.90;;;22.90;61.59;101131.16;2568275;30;139369;-40
2021/08/15 08:28:08;;;;;;;8.82;4.25;;;23.60;99.90;;;22.68;61.18;101132.38;2568706;30;136992;-39
2021/08/15 08:30:35;;;;;;;;;;;23.50;99.90;;;22.57;64.63;101141.91;2568629;30;138424;-40
2021/08/15 08:33:03;;;;;;;8.48;3.72;;;23.30;99.90;;;22.52;63.05;101139.97;2569677;30;136744;-40
2021/08/15 08:35:31;;;;;;;9.23;4.07;;;23.30;99.90;;;22.45;64.81;101120.81;2568020;30;138330;-39
2021/08/15 08:37:59;;;;;;;8.55;4.10;;;23.30;99.90;;;22.29;63.36;101122.00;2576453;30;137289;-41
2021/08/15 08:40:26;;;;;;;;;;;23.10;99.90;;;22.28;64.87;101129.50;2567950;30;137474;-39
2021/08/15 08:42:55;;;;;;;8.15;3.72;;;23.10;99.90;;;22.42;65.12;101138.06;2569973;30;137007;-44
2021/08/15 08:45:24;;;;;;;7.88;3.97;;;23.20;99.90;;;22.48;66.47;101139.72;2568206;30;137603;-43
2021/08/15 08:47:54;;;;;;;8.55;4.88;;;23.20;99.90;;;22.49;65.87;101133.03;2568108;30;137819;-41
2021/08/15 08:50:23;;;;;;;10.18;4.63;;;23.20;99.90;;;22.46;66.00;101136.38;2567434;30;136960;-40
2021/08/15 08:52:52;;;;;;;9.18;3.85;;;23.20;99.90;;;22.50;66.35;101123.59;2568396;30;136928;-42
2021/08/15 08:55:21;;;;;;;8.57;4.20;;;23.30;99.90;;;22.57;66.89;101131.59;2568133;30;138418;-41
2021/08/15 08:57:49;;;;;;;9.20;4.10;;;23.30;99.90;;;22.60;65.39;101130.22;2568226;30;137760;-40
2021/08/15 09:00:18;;;;;;;12.15;4.40;;;23.30;99.90;;;22.63;66.50;101121.31;2568027;30;138218;-41
2021/08/15 09:02:47;;;;;;;7.55;3.30;;;23.30;99.90;;;22.83;66.51;101126.75;2566372;30;136880;-42
2021/08/15 09:05:30;;;;;;;8.60;4.22;;;23.50;99.90;;;23.21;63.17;101122.56;2567855;30;139299;-41
2021/08/15 09:08:03;;;;;;;8.75;3.97;;;23.70;99.90;;;23.58;62.87;101118.34;2568257;30;137450;-42
2021/08/15 09:10:40;;;;;;;7.78;3.55;;;24.00;99.90;;;23.94;63.93;101122.69;2567183;30;138440;-41
2021/08/15 09:13:10;;;;;;;6.63;3.58;;;24.30;99.90;;;24.08;62.33;101120.06;2567786;30;137530;-41
2021/08/15 09:15:38;;;;;;;8.80;3.38;;;24.50;99.90;;;24.02;59.32;101122.09;2567333;30;139111;-41
2021/08/15 09:18:06;;;;;;;6.25;3.40;;;24.50;99.90;;;24.09;59.02;101113.34;2567391;30;137844;-41
2021/08/15 09:20:45;;;;;;;5.68;3.28;;;24.60;99.90;;;24.15;60.05;101116.91;2568988;30;137670;-41
2021/08/15 09:23:31;;;;;;;7.35;3.20;;;24.70;99.90;;;24.27;61.31;101111.75;2568047;30;137725;-42
2021/08/15 09:26:21;;;;;;;7.38;3.03;;;24.90;99.90;;;24.30;61.27;101102.78;2565187;30;138744;-40
2021/08/15 09:28:51;;;;;;;6.78;2.92;;;24.90;99.90;;;24.14;59.52;101104.97;2568305;30;136730;-42
2021/08/15 09:31:32;;;;;;;6.47;3.13;;;24.80;99.90;;;24.12;59.38;101102.47;2568515;30;138455;-41
2021/08/15 09:34:03;;;;;;;6.22;3.03;;;24.70;99.90;;;24.12;59.13;101101.59;2565139;30;137060;-38
2021/08/15 09:36:40;;;;;;;5.43;2.60;;;24.80;99.90;;;24.07;60.06;101110.03;2565927;30;137154;-37
2021/08/15 09:39:11;;;;;;;7.15;2.80;;;24.70;99.90;;;24.22;61.89;101109.00;2567620;30;137040;-38
2021/08/15 09:41:49;;;;;;;6.43;2.65;;;24.80;99.90;;;24.30;59.22;101108.38;2566007;30;137129;-37
2021/08/15 09:44:24;;;;;;;6.72;2.78;;;24.90;99.90;;;24.43;59.46;101104.03;2567712;30;138560;-39
2021/08/15 09:47:07;;;;;;;6.60;2.95;;;25.00;99.90;;;24.55;59.01;101098.81;2567954;30;137150;-41
2021/08/15 09:49:46;;;;;;;7.25;2.88;;;;;;;24.82;59.96;101090.94;2566453;30;136925;-39
2021/08/15 09:52:19;;;;;;;6.65;3.35;;;;;;;25.12;54.72;101088.78;2568185;30;137466;-38
2021/08/15 09:54:57;;;;;;;6.47;2.63;;;;;;;25.45;57.55;101087.91;2567742;30;136813;-41
2021/08/15 09:57:33;;;;;;;7.07;3.10;;;;;;;25.59;56.31;101091.59;2565913;30;137958;-41
2021/08/15 10:00:06;;;;;;;8.57;3.83;;;;;;;25.58;53.28;101078.75;2568178;30;137265;-41
2021/08/15 10:02:40;;;;;;;5.18;3.03;;;;;;;25.64;54.19;101083.09;2566969;30;137403;-41
2021/08/15 10:05:10;;;;;;;6.65;2.63;;;;;;;25.87;56.93;101085.19;2567279;30;137326;-44
2021/08/15 10:07:39;;;;;;;7.32;2.72;;;;;;;25.98;55.41;101081.84;2568374;30;138677;-41
2021/08/15 10:10:09;;;;;;;5.72;2.50;;;;;;;26.10;55.37;101083.31;2567529;30;138309;-41